createdAt,value
2018-08-03T00:00:45.028Z,27.40
2018-08-03T00:03:13.426Z,29.00
2018-08-03T00:05:41.778Z,20.10
2018-08-03T00:08:10.107Z,21.67
2018-08-03T00:10:38.497Z,19.57
2018-08-03T00:13:06.992Z,34.13
2018-08-03T00:15:35.410Z,25.03
2018-08-03T00:18:03.765Z,20.37
2018-08-03T00:20:32.127Z,20.73
2018-08-03T00:23:00.506Z,25.00
2018-08-03T00:25:30.196Z,21.23
2018-08-03T00:27:58.582Z,29.23
2018-08-03T00:30:26.355Z,19.53
2018-08-03T00:32:54.802Z,25.40
2018-08-03T00:35:23.215Z,24.23
2018-08-03T00:37:51.582Z,24.43
2018-08-03T00:40:19.936Z,21.97
2018-08-03T00:42:48.400Z,24.87
2018-08-03T00:45:16.826Z,21.77
2018-08-03T00:47:45.189Z,20.47
2018-08-03T00:50:13.557Z,26.00
2018-08-03T00:52:41.887Z,47.47
2018-08-03T00:55:10.220Z,22.27
2018-08-03T00:57:38.564Z,26.60
2018-08-03T01:00:07.000Z,24.67
2018-08-03T01:02:35.384Z,24.63
2018-08-03T01:05:03.838Z,21.17
2018-08-03T01:07:32.183Z,19.77
2018-08-03T01:10:00.538Z,20.13
2018-08-03T01:12:28.913Z,24.97
2018-08-03T01:14:57.302Z,21.90
2018-08-03T01:17:25.766Z,21.83
2018-08-03T01:19:54.172Z,21.70
2018-08-03T01:22:22.724Z,25.67
2018-08-03T01:24:51.105Z,20.83
2018-08-03T01:27:19.566Z,23.80
2018-08-03T01:29:47.877Z,23.90
2018-08-03T01:32:16.327Z,21.47
2018-08-03T01:34:44.663Z,21.60
2018-08-03T01:37:12.983Z,21.30
2018-08-03T01:39:41.377Z,26.77
2018-08-03T01:42:09.756Z,20.37
2018-08-03T01:44:38.117Z,22.53
2018-08-03T01:47:06.638Z,30.57
2018-08-03T01:49:34.980Z,22.13
2018-08-03T01:52:03.419Z,22.30
2018-08-03T01:54:31.757Z,26.37
2018-08-03T01:57:00.176Z,22.50
2018-08-03T01:59:28.581Z,20.73
2018-08-03T02:01:56.944Z,26.23
2018-08-03T02:04:25.305Z,25.53
2018-08-03T02:06:53.665Z,20.80
2018-08-03T02:09:22.004Z,25.13
2018-08-03T02:11:50.367Z,21.07
2018-08-03T02:14:18.705Z,23.30
2018-08-03T02:16:47.083Z,20.43
2018-08-03T02:19:15.408Z,20.60
2018-08-03T02:21:43.805Z,23.37
2018-08-03T02:24:12.213Z,26.57
2018-08-03T02:26:40.585Z,25.00
2018-08-03T02:29:08.952Z,22.03
2018-08-03T02:31:37.268Z,22.87
2018-08-03T02:34:05.620Z,20.80
2018-08-03T02:36:33.942Z,23.03
2018-08-03T02:39:02.629Z,27.00
2018-08-03T02:41:30.935Z,20.03
2018-08-03T02:43:59.304Z,21.60
2018-08-03T02:46:27.624Z,22.97
2018-08-03T02:48:55.936Z,21.83
2018-08-03T02:51:24.278Z,21.60
2018-08-03T02:53:52.626Z,23.50
2018-08-03T02:56:20.932Z,22.93
2018-08-03T02:58:49.277Z,27.53
2018-08-03T03:01:17.610Z,25.47
2018-08-03T03:03:46.013Z,25.17
2018-08-03T03:06:14.349Z,20.60
2018-08-03T03:08:42.653Z,21.63
2018-08-03T03:11:10.948Z,21.90
2018-08-03T03:13:39.271Z,21.20
2018-08-03T03:16:07.661Z,22.43
2018-08-03T03:18:35.977Z,26.20
2018-08-03T03:21:04.344Z,27.53
2018-08-03T03:23:32.774Z,25.67
2018-08-03T03:26:01.105Z,22.37
2018-08-03T03:28:29.466Z,28.50
2018-08-03T03:30:57.864Z,23.27
2018-08-03T03:33:26.243Z,26.57
2018-08-03T03:35:55.206Z,22.43
2018-08-03T03:38:23.537Z,21.30
2018-08-03T03:40:51.866Z,26.33
2018-08-03T03:43:20.330Z,21.63
2018-08-03T03:45:48.753Z,25.13
2018-08-03T03:48:17.241Z,24.70
2018-08-03T03:50:46.249Z,21.00
2018-08-03T03:53:14.594Z,24.10
2018-08-03T03:55:42.787Z,31.10
2018-08-03T03:58:11.115Z,21.67
2018-08-03T04:00:39.561Z,27.27
2018-08-03T04:03:07.970Z,23.40
2018-08-03T04:05:36.316Z,26.30
2018-08-03T04:08:04.716Z,24.03
2018-08-03T04:10:33.217Z,23.07
2018-08-03T04:13:01.542Z,22.20
2018-08-03T04:15:29.945Z,24.07
2018-08-03T04:17:58.224Z,25.00
2018-08-03T04:20:26.584Z,24.67
2018-08-03T04:22:54.927Z,22.40
2018-08-03T04:25:23.276Z,25.87
2018-08-03T04:27:51.601Z,22.70
2018-08-03T04:30:19.954Z,20.10
2018-08-03T04:32:48.256Z,22.73
2018-08-03T04:35:16.631Z,23.00
2018-08-03T04:37:45.049Z,24.27
2018-08-03T04:40:13.478Z,23.03
2018-08-03T04:42:41.943Z,22.63
2018-08-03T04:45:10.337Z,25.43
2018-08-03T04:47:38.690Z,25.23
2018-08-03T04:50:07.077Z,28.10
2018-08-03T04:52:35.444Z,23.90
2018-08-03T04:55:03.844Z,27.07
2018-08-03T04:57:32.204Z,22.33
2018-08-03T05:00:00.543Z,25.13
2018-08-03T05:02:28.900Z,31.43
2018-08-03T05:04:57.321Z,26.70
2018-08-03T05:07:25.665Z,27.27
2018-08-03T05:09:53.984Z,24.73
2018-08-03T05:12:22.270Z,24.27
2018-08-03T05:14:50.598Z,24.70
2018-08-03T05:17:19.055Z,26.13
2018-08-03T05:19:47.403Z,24.20
2018-08-03T05:22:15.832Z,25.33
2018-08-03T05:24:44.286Z,27.90
2018-08-03T05:27:12.668Z,28.23
2018-08-03T05:29:41.078Z,29.43
2018-08-03T05:32:09.492Z,24.87
2018-08-03T05:34:37.804Z,26.40
2018-08-03T05:37:06.208Z,31.17
2018-08-03T05:39:34.665Z,38.60
2018-08-03T05:42:03.120Z,28.50
2018-08-03T05:44:31.436Z,27.97
2018-08-03T05:46:59.891Z,27.83
2018-08-03T05:49:28.332Z,28.20
2018-08-03T05:51:56.782Z,25.60
2018-08-03T05:54:25.192Z,34.93
2018-08-03T05:56:53.620Z,38.00
2018-08-03T05:59:21.993Z,36.90
2018-08-03T06:01:50.620Z,44.83
2018-08-03T06:04:19.218Z,36.47
2018-08-03T06:06:47.646Z,38.40
2018-08-03T06:09:16.031Z,40.90
2018-08-03T06:11:44.310Z,43.43
2018-08-03T06:14:15.793Z,39.23
2018-08-03T06:16:44.229Z,46.80
2018-08-03T06:19:12.615Z,41.90
2018-08-03T06:21:40.980Z,39.83
2018-08-03T06:24:09.396Z,39.83
2018-08-03T06:26:37.729Z,44.33
2018-08-03T06:29:06.444Z,44.73
2018-08-03T06:31:34.828Z,39.83
2018-08-03T06:34:03.248Z,46.07
2018-08-03T06:36:31.660Z,37.20
2018-08-03T06:39:00.009Z,39.53
2018-08-03T06:41:28.402Z,43.30
2018-08-03T06:43:56.878Z,35.90
2018-08-03T06:46:25.195Z,37.93
2018-08-03T06:48:53.873Z,37.20
2018-08-03T06:51:22.208Z,37.23
2018-08-03T06:53:50.630Z,33.70
2018-08-03T06:56:18.912Z,39.80
2018-08-03T06:58:47.269Z,32.47
2018-08-03T07:01:15.625Z,36.07
2018-08-03T07:03:43.992Z,37.70
2018-08-03T07:06:12.409Z,34.43
2018-08-03T07:08:40.718Z,34.47
2018-08-03T07:11:09.005Z,34.70
2018-08-03T07:13:37.357Z,39.90
2018-08-03T07:16:05.770Z,51.70
2018-08-03T07:18:34.163Z,31.10
2018-08-03T07:21:02.545Z,38.13
2018-08-03T07:23:30.881Z,37.70
2018-08-03T07:25:59.121Z,31.83
2018-08-03T07:28:27.408Z,32.43
2018-08-03T07:30:55.858Z,36.13
2018-08-03T07:33:24.273Z,41.10
2018-08-03T07:35:52.829Z,33.43
2018-08-03T07:38:21.416Z,32.33
2018-08-03T07:40:49.798Z,29.23
2018-08-03T07:43:18.183Z,37.00
2018-08-03T07:45:46.502Z,30.00
2018-08-03T07:48:14.942Z,27.57
2018-08-03T07:50:43.330Z,27.40
2018-08-03T07:53:11.576Z,34.03
2018-08-03T07:55:39.925Z,32.00
2018-08-03T07:58:08.272Z,25.87
2018-08-03T08:00:36.457Z,26.13
2018-08-03T08:03:04.948Z,28.50
2018-08-03T08:05:33.234Z,23.30
2018-08-03T08:08:01.544Z,28.63
2018-08-03T08:10:30.293Z,28.00
2018-08-03T08:12:58.666Z,28.80
2018-08-03T08:15:27.042Z,26.73
2018-08-03T08:17:55.499Z,27.73
2018-08-03T08:20:23.765Z,28.27
2018-08-03T08:22:52.082Z,25.93
2018-08-03T08:25:20.466Z,26.87
2018-08-03T08:27:48.807Z,24.63
2018-08-03T08:30:17.270Z,21.07
2018-08-03T08:32:45.556Z,23.03
2018-08-03T08:35:13.935Z,24.67
2018-08-03T08:37:42.281Z,33.00
2018-08-03T08:40:10.641Z,28.33
2018-08-03T08:42:39.982Z,33.27
2018-08-03T08:45:08.421Z,31.57
2018-08-03T08:47:36.874Z,24.33
2018-08-03T08:50:06.962Z,23.33
2018-08-03T08:52:35.345Z,25.47
2018-08-03T08:55:03.667Z,25.47
2018-08-03T08:57:32.001Z,27.60
2018-08-03T09:00:00.339Z,26.70
2018-08-03T09:02:28.675Z,25.40
2018-08-03T09:04:57.093Z,21.67
2018-08-03T09:07:25.586Z,23.23
2018-08-03T09:09:53.994Z,29.70
2018-08-03T09:12:22.339Z,22.57
2018-08-03T09:14:50.545Z,22.43
2018-08-03T09:17:19.020Z,21.80
2018-08-03T09:19:47.348Z,21.87
2018-08-03T09:22:16.522Z,22.30
2018-08-03T09:24:44.958Z,22.73
2018-08-03T09:27:13.202Z,21.53
2018-08-03T09:29:41.513Z,21.40
2018-08-03T09:32:09.994Z,21.90
2018-08-03T09:34:38.542Z,20.60
2018-08-03T09:37:06.941Z,20.80
2018-08-03T09:39:35.280Z,19.50
2018-08-03T09:42:04.618Z,21.20
2018-08-03T09:44:32.853Z,24.20
2018-08-03T09:47:01.147Z,23.67
2018-08-03T09:49:29.513Z,25.17
2018-08-03T09:51:57.919Z,26.50
2018-08-03T09:54:26.231Z,24.40
2018-08-03T09:56:54.533Z,24.50
2018-08-03T09:59:22.896Z,24.70
2018-08-03T10:01:51.291Z,20.47
2018-08-03T10:04:19.578Z,22.67
2018-08-03T10:06:47.891Z,30.97
2018-08-03T10:09:16.333Z,28.53
2018-08-03T10:11:44.752Z,26.07
2018-08-03T10:14:13.100Z,23.50
2018-08-03T10:16:41.333Z,23.20
2018-08-03T10:19:09.703Z,23.17
2018-08-03T10:21:38.030Z,23.83
2018-08-03T10:24:06.368Z,27.87
2018-08-03T10:26:34.709Z,20.50
2018-08-03T10:29:03.033Z,18.30
2018-08-03T10:31:31.481Z,25.67
2018-08-03T10:33:59.834Z,21.03
2018-08-03T10:36:28.195Z,23.40
2018-08-03T10:38:56.440Z,19.40
2018-08-03T10:41:24.776Z,19.73
2018-08-03T10:43:53.123Z,19.80
2018-08-03T10:46:21.521Z,19.40
2018-08-03T10:48:49.923Z,27.23
2018-08-03T10:51:18.241Z,21.50
2018-08-03T10:53:46.624Z,17.93
2018-08-03T10:56:15.008Z,24.97
2018-08-03T10:58:43.371Z,19.63
2018-08-03T11:01:11.894Z,20.10
2018-08-03T11:03:40.200Z,21.60
2018-08-03T11:06:08.592Z,23.67
2018-08-03T11:08:36.999Z,22.80
2018-08-03T11:11:05.226Z,23.10
2018-08-03T11:13:33.525Z,21.53
2018-08-03T11:16:01.843Z,20.03
2018-08-03T11:18:30.166Z,19.40
2018-08-03T11:20:58.538Z,18.87
2018-08-03T11:23:26.924Z,19.20
2018-08-03T11:25:55.349Z,19.00
2018-08-03T11:28:23.745Z,24.87
2018-08-03T11:30:52.052Z,23.87
2018-08-03T11:33:20.393Z,18.60
2018-08-03T11:35:48.728Z,19.53
2018-08-03T11:38:16.924Z,20.23
2018-08-03T11:40:45.290Z,23.30
2018-08-03T11:43:13.673Z,18.60
2018-08-03T11:45:41.944Z,21.80
2018-08-03T11:48:10.201Z,15.63
2018-08-03T11:50:38.512Z,16.10
2018-08-03T11:53:06.858Z,17.60
2018-08-03T11:55:35.241Z,16.40
2018-08-03T11:58:03.626Z,19.80
2018-08-03T12:00:31.820Z,15.90
2018-08-03T12:03:00.212Z,16.60
2018-08-03T12:05:28.575Z,17.00
2018-08-03T12:07:56.961Z,15.77
2018-08-03T12:10:25.262Z,18.10
2018-08-03T12:12:53.710Z,17.27
2018-08-03T12:15:22.067Z,16.87
2018-08-03T12:17:50.447Z,16.77
2018-08-03T12:20:18.676Z,16.70
2018-08-03T12:22:47.026Z,13.30
2018-08-03T12:25:15.332Z,15.40
2018-08-03T12:27:43.706Z,16.20
2018-08-03T12:30:12.058Z,17.50
2018-08-03T12:32:40.409Z,18.33
2018-08-03T12:35:08.657Z,15.50
2018-08-03T12:37:37.078Z,19.63
2018-08-03T12:40:05.490Z,17.53
2018-08-03T12:42:33.849Z,20.10
2018-08-03T12:45:02.181Z,15.20
2018-08-03T12:47:30.534Z,18.23
2018-08-03T12:49:58.923Z,16.50
2018-08-03T12:52:27.294Z,16.13
2018-08-03T12:54:55.606Z,20.67
2018-08-03T12:57:23.974Z,20.93
2018-08-03T12:59:52.368Z,16.23
2018-08-03T13:02:20.645Z,16.20
2018-08-03T13:04:48.893Z,17.50
2018-08-03T13:07:17.212Z,22.43
2018-08-03T13:09:45.583Z,19.43
2018-08-03T13:12:13.949Z,14.17
2018-08-03T13:14:42.266Z,17.57
2018-08-03T13:17:10.667Z,17.87
2018-08-03T13:19:39.005Z,18.40
2018-08-03T13:22:19.611Z,19.53
2018-08-03T13:24:47.982Z,15.10
2018-08-03T13:27:16.749Z,20.53
2018-08-03T13:32:19.938Z,16.10
2018-08-03T13:34:48.360Z,16.07
2018-08-03T13:37:16.767Z,16.57
2018-08-03T13:39:45.149Z,16.20
2018-08-03T13:42:13.651Z,15.33
2018-08-03T13:44:42.100Z,18.27
2018-08-03T13:47:10.397Z,14.27
2018-08-03T13:49:38.732Z,15.67
2018-08-03T13:52:06.989Z,17.00
2018-08-03T13:54:35.301Z,15.33
2018-08-03T13:57:03.864Z,16.07
2018-08-03T13:59:32.661Z,16.40
2018-08-03T14:02:17.009Z,15.33
2018-08-03T14:04:45.403Z,15.90
2018-08-03T14:07:13.780Z,15.87
2018-08-03T14:09:42.217Z,14.17
2018-08-03T14:12:10.580Z,22.70
2018-08-03T14:14:39.597Z,14.13
2018-08-03T14:17:08.517Z,16.07
2018-08-03T14:19:36.902Z,14.63
2018-08-03T14:22:05.666Z,19.60
2018-08-03T14:24:34.598Z,14.37
2018-08-03T14:27:03.591Z,16.67
2018-08-03T14:29:32.123Z,15.50
2018-08-03T14:32:00.623Z,16.50
2018-08-03T14:34:28.962Z,17.23
2018-08-03T14:36:57.216Z,13.53
2018-08-03T14:39:25.711Z,16.33
2018-08-03T14:41:54.090Z,15.17
2018-08-03T14:44:22.547Z,15.17
2018-08-03T14:46:50.993Z,18.73
2018-08-03T14:49:19.412Z,17.87
2018-08-03T14:51:47.713Z,18.67
2018-08-03T14:54:15.974Z,15.13
2018-08-03T14:56:44.406Z,12.70
2018-08-03T14:59:12.693Z,15.40
2018-08-03T15:01:41.074Z,16.00
2018-08-03T15:04:09.490Z,15.13
2018-08-03T15:06:37.853Z,17.07
2018-08-03T15:09:09.436Z,15.30
2018-08-03T15:11:37.814Z,13.50
2018-08-03T15:14:06.275Z,13.10
2018-08-03T15:16:34.742Z,17.80
2018-08-03T15:19:03.374Z,14.57
2018-08-03T15:21:31.762Z,13.87
2018-08-03T15:24:00.181Z,15.87
2018-08-03T15:26:28.626Z,13.97
2018-08-03T15:28:56.998Z,18.60
2018-08-03T15:31:25.416Z,17.17
2018-08-03T15:33:53.858Z,15.23
2018-08-03T15:36:22.278Z,13.50
2018-08-03T15:38:50.596Z,14.30
2018-08-03T15:41:19.087Z,13.40
2018-08-03T15:43:47.593Z,14.73
2018-08-03T15:46:15.952Z,14.20
2018-08-03T15:48:44.632Z,15.10
2018-08-03T15:51:13.553Z,15.80
2018-08-03T15:53:41.894Z,18.27
2018-08-03T15:56:10.507Z,16.57
2018-08-03T15:58:38.927Z,12.47
2018-08-03T16:01:07.361Z,15.57
2018-08-03T16:03:35.737Z,14.30
2018-08-03T16:06:04.942Z,23.53
2018-08-03T16:08:33.954Z,16.80
2018-08-03T16:11:02.316Z,11.77
2018-08-03T16:13:30.569Z,13.47
2018-08-03T16:15:58.971Z,13.40
2018-08-03T16:18:27.231Z,17.40
2018-08-03T16:20:55.608Z,16.90
2018-08-03T16:23:24.097Z,14.87
2018-08-03T16:25:52.595Z,13.53
2018-08-03T16:28:21.014Z,18.17
2018-08-03T16:30:49.330Z,16.67
2018-08-03T16:33:17.752Z,14.83
2018-08-03T16:35:46.090Z,15.50
2018-08-03T16:38:14.463Z,14.70
2018-08-03T16:40:42.857Z,17.70
2018-08-03T16:43:11.253Z,19.10
2018-08-03T16:45:39.626Z,14.93
2018-08-03T16:48:07.986Z,18.50
2018-08-03T16:50:36.356Z,15.80
2018-08-03T16:53:04.813Z,20.83
2018-08-03T16:55:33.307Z,14.80
2018-08-03T16:58:01.696Z,16.03
2018-08-03T17:00:30.072Z,14.83
2018-08-03T17:02:58.469Z,14.10
2018-08-03T17:05:26.877Z,21.93
2018-08-03T17:07:55.256Z,15.77
2018-08-03T17:10:23.682Z,12.30
2018-08-03T17:12:52.009Z,13.63
2018-08-03T17:15:20.442Z,14.33
2018-08-03T17:17:48.767Z,14.43
2018-08-03T17:20:17.142Z,17.43
2018-08-03T17:22:45.534Z,16.27
2018-08-03T17:25:13.926Z,15.67
2018-08-03T17:27:42.326Z,15.80
2018-08-03T17:30:10.702Z,18.50
2018-08-03T17:32:39.100Z,14.70
2018-08-03T17:35:07.337Z,15.63
2018-08-03T17:37:35.884Z,17.33
2018-08-03T17:40:04.547Z,14.00
2018-08-03T17:42:32.870Z,14.50
2018-08-03T17:45:01.184Z,18.03
2018-08-03T17:47:29.546Z,17.53
2018-08-03T17:49:57.890Z,16.93
2018-08-03T17:52:26.284Z,15.80
2018-08-03T17:54:54.681Z,16.83
2018-08-03T17:57:23.225Z,14.03
2018-08-03T17:59:51.648Z,16.33
2018-08-03T18:02:20.056Z,12.87
2018-08-03T18:04:48.478Z,14.30
2018-08-03T18:07:16.860Z,15.47
2018-08-03T18:09:45.260Z,13.50
2018-08-03T18:12:13.606Z,18.50
2018-08-03T18:14:41.966Z,17.80
2018-08-03T18:17:10.365Z,17.23
2018-08-03T18:19:38.734Z,13.57
2018-08-03T18:22:07.355Z,15.87
2018-08-03T18:24:35.582Z,14.60
2018-08-03T18:27:04.076Z,15.43
2018-08-03T18:29:32.443Z,14.20
2018-08-03T18:32:00.878Z,14.37
2018-08-03T18:34:29.165Z,17.53
2018-08-03T18:36:57.516Z,22.37
2018-08-03T18:39:25.740Z,17.53
2018-08-03T18:41:54.038Z,18.33
2018-08-03T18:44:22.391Z,19.10
2018-08-03T18:46:50.772Z,17.43
2018-08-03T18:49:19.032Z,17.37
2018-08-03T18:51:47.438Z,19.30
2018-08-03T18:54:16.002Z,18.33
2018-08-03T18:56:45.126Z,17.57
2018-08-03T18:59:13.486Z,18.00
2018-08-03T19:01:41.872Z,17.47
2018-08-03T19:04:10.302Z,16.30
2018-08-03T19:06:38.715Z,15.50
2018-08-03T19:09:07.911Z,17.93
2018-08-03T19:11:36.489Z,18.23
2018-08-03T19:14:04.991Z,25.93
2018-08-03T19:16:33.390Z,21.30
2018-08-03T19:19:01.941Z,20.83
2018-08-03T19:21:30.361Z,19.53
2018-08-03T19:23:58.818Z,18.10
2018-08-03T19:26:27.245Z,21.50
2018-08-03T19:28:55.616Z,18.37
2018-08-03T19:31:24.091Z,21.93
2018-08-03T19:33:52.467Z,22.00
2018-08-03T19:36:20.841Z,19.40
2018-08-03T19:38:49.181Z,15.73
2018-08-03T19:41:17.561Z,16.77
2018-08-03T19:43:46.774Z,15.90
2018-08-03T19:46:15.199Z,17.90
2018-08-03T19:48:43.621Z,21.77
2018-08-03T19:51:11.993Z,22.50
2018-08-03T19:53:40.362Z,18.13
2018-08-03T19:56:08.762Z,19.90
2018-08-03T19:58:37.194Z,17.47
2018-08-03T20:01:05.673Z,20.97
2018-08-03T20:03:34.415Z,21.17
2018-08-03T20:06:03.205Z,16.30
2018-08-03T20:08:31.597Z,16.37
2018-08-03T20:10:59.985Z,29.20
2018-08-03T20:13:28.624Z,21.10
2018-08-03T20:15:57.014Z,17.93
2018-08-03T20:18:25.406Z,18.77
2018-08-03T20:20:54.201Z,21.10
2018-08-03T20:23:22.690Z,18.43
2018-08-03T20:25:51.117Z,18.30
2018-08-03T20:28:19.547Z,18.07
2018-08-03T20:30:47.947Z,15.93
2018-08-03T20:33:16.349Z,22.33
2018-08-03T20:35:44.760Z,17.40
2018-08-03T20:38:13.270Z,16.90
2018-08-03T20:40:41.613Z,18.57
2018-08-03T20:43:09.889Z,19.43
2018-08-03T20:45:38.190Z,17.80
2018-08-03T20:48:06.629Z,21.53
2018-08-03T20:50:34.917Z,18.23
2018-08-03T20:53:03.259Z,21.33
2018-08-03T20:55:31.753Z,18.03
2018-08-03T20:58:00.071Z,19.40
2018-08-03T21:00:28.492Z,21.60
2018-08-03T21:02:56.822Z,21.53
2018-08-03T21:05:25.241Z,20.83
2018-08-03T21:07:53.732Z,18.40
2018-08-03T21:10:22.218Z,19.53
2018-08-03T21:12:50.723Z,16.30
2018-08-03T21:15:19.008Z,17.80
2018-08-03T21:17:47.435Z,21.40
2018-08-03T21:20:15.805Z,20.87
2018-08-03T21:22:44.254Z,18.83
2018-08-03T21:25:12.619Z,22.37
2018-08-03T21:27:40.988Z,20.40
2018-08-03T21:30:10.495Z,20.00
2018-08-03T21:32:38.878Z,16.27
2018-08-03T21:35:07.389Z,22.17
2018-08-03T21:37:35.959Z,18.10
2018-08-03T21:40:04.803Z,19.20
2018-08-03T21:42:33.282Z,18.67
2018-08-03T21:45:01.644Z,20.60
2018-08-03T21:47:30.110Z,17.30
2018-08-03T21:49:58.380Z,21.33
2018-08-03T21:52:26.753Z,19.73
2018-08-03T21:54:55.135Z,18.23
2018-08-03T21:57:23.639Z,19.70
2018-08-03T21:59:51.954Z,20.50
2018-08-03T22:02:20.381Z,22.33
2018-08-03T22:04:48.690Z,18.30
2018-08-03T22:07:17.136Z,18.47
2018-08-03T22:09:45.500Z,20.17
2018-08-03T22:12:13.974Z,18.00
2018-08-03T22:14:42.222Z,23.37
2018-08-03T22:17:10.826Z,23.03
2018-08-03T22:19:39.146Z,19.80
2018-08-03T22:22:07.593Z,19.87
2018-08-03T22:24:36.079Z,18.87
2018-08-03T22:27:04.428Z,17.80
2018-08-03T22:29:33.222Z,18.20
2018-08-03T22:32:01.617Z,25.13
2018-08-03T22:34:30.235Z,19.80
2018-08-03T22:36:58.582Z,19.23
2018-08-03T22:39:27.076Z,18.70
2018-08-03T22:41:55.574Z,25.17
2018-08-03T22:44:24.830Z,21.83
2018-08-03T22:46:53.195Z,20.50
2018-08-03T22:49:21.385Z,22.20
2018-08-03T22:51:49.801Z,30.03
2018-08-03T22:54:18.133Z,18.87
2018-08-03T22:56:46.742Z,18.37
2018-08-03T22:59:15.090Z,18.23
2018-08-03T23:01:43.520Z,16.30
2018-08-03T23:04:11.976Z,19.10
2018-08-03T23:06:40.309Z,19.07
2018-08-03T23:09:09.392Z,21.17
2018-08-03T23:11:37.856Z,21.53
2018-08-03T23:14:06.361Z,22.40
2018-08-03T23:16:34.698Z,18.87
2018-08-03T23:19:03.081Z,16.47
2018-08-03T23:21:31.480Z,19.80
2018-08-03T23:23:59.871Z,23.80
2018-08-03T23:26:28.824Z,22.50
2018-08-03T23:28:57.233Z,21.20
2018-08-03T23:31:25.623Z,21.47
2018-08-03T23:33:54.093Z,20.90
2018-08-03T23:36:22.435Z,19.30
2018-08-03T23:38:50.766Z,26.10
2018-08-03T23:41:19.081Z,19.77
2018-08-03T23:43:47.281Z,18.67
2018-08-03T23:46:15.636Z,19.70
2018-08-03T23:48:43.832Z,21.40
2018-08-03T23:51:12.177Z,16.53
2018-08-03T23:53:40.525Z,20.70
2018-08-03T23:56:08.853Z,17.20
2018-08-03T23:58:37.252Z,18.80
